sensor_id;sensor_type;location;lat;lon;timestamp;pressure;altitude;pressure_sealevel;temperature;humidity
6208;BME280;3137;51.550;7.060;2023-02-14T00:00:24;103112.03;;;2.52;89.89
6208;BME280;3137;51.550;7.060;2023-02-14T00:02:50;103111.16;;;2.42;89.58
6208;BME280;3137;51.550;7.060;2023-02-14T00:05:17;103107.59;;;2.42;89.56
6208;BME280;3137;51.550;7.060;2023-02-14T00:07:43;103118.19;;;2.43;89.62
6208;BME280;3137;51.550;7.060;2023-02-14T00:10:10;103116.41;;;2.39;89.78
6208;BME280;3137;51.550;7.060;2023-02-14T00:12:36;103115.53;;;2.39;89.54
6208;BME280;3137;51.550;7.060;2023-02-14T00:15:03;103108.47;;;2.31;89.65
6208;BME280;3137;51.550;7.060;2023-02-14T00:17:48;103099.66;;;2.29;89.40
6208;BME280;3137;51.550;7.060;2023-02-14T00:20:15;103103.19;;;2.30;89.64
6208;BME280;3137;51.550;7.060;2023-02-14T00:22:42;103105.84;;;2.21;90.10
6208;BME280;3137;51.550;7.060;2023-02-14T00:25:08;103104.94;;;2.22;89.92
6208;BME280;3137;51.550;7.060;2023-02-14T00:27:35;103104.06;;;2.21;90.13
6208;BME280;3137;51.550;7.060;2023-02-14T00:30:01;103097.91;;;2.21;89.79
6208;BME280;3137;51.550;7.060;2023-02-14T00:32:28;103100.50;;;2.18;89.63
6208;BME280;3137;51.550;7.060;2023-02-14T00:34:55;103106.69;;;2.15;89.71
6208;BME280;3137;51.550;7.060;2023-02-14T00:37:22;103108.44;;;2.18;89.84
6208;BME280;3137;51.550;7.060;2023-02-14T00:39:51;103111.09;;;2.18;89.86
6208;BME280;3137;51.550;7.060;2023-02-14T00:42:17;103105.81;;;2.16;90.24
6208;BME280;3137;51.550;7.060;2023-02-14T00:44:44;103108.44;;;2.11;89.96
6208;BME280;3137;51.550;7.060;2023-02-14T00:47:10;103109.31;;;2.12;90.22
6208;BME280;3137;51.550;7.060;2023-02-14T00:49:37;103099.63;;;2.12;90.21
6208;BME280;3137;51.550;7.060;2023-02-14T00:52:03;103103.16;;;2.11;90.27
6208;BME280;3137;51.550;7.060;2023-02-14T00:54:30;103104.03;;;2.07;89.81
6208;BME280;3137;51.550;7.060;2023-02-14T00:56:57;103104.03;;;2.04;90.10
6208;BME280;3137;51.550;7.060;2023-02-14T00:59:24;103104.00;;;1.95;90.18
6208;BME280;3137;51.550;7.060;2023-02-14T01:01:50;103114.59;;;1.97;90.02
6208;BME280;3137;51.550;7.060;2023-02-14T01:04:17;103110.16;;;1.96;90.09
6208;BME280;3137;51.550;7.060;2023-02-14T01:06:44;103113.69;;;1.95;90.04
6208;BME280;3137;51.550;7.060;2023-02-14T01:09:11;103107.53;;;1.92;90.25
6208;BME280;3137;51.550;7.060;2023-02-14T01:11:38;103117.19;;;1.89;90.22
6208;BME280;3137;51.550;7.060;2023-02-14T01:14:05;103111.88;;;1.84;90.30
6208;BME280;3137;51.550;7.060;2023-02-14T01:16:32;103114.53;;;1.81;89.87
6208;BME280;3137;51.550;7.060;2023-02-14T01:18:59;103117.16;;;1.78;90.10
6208;BME280;3137;51.550;7.060;2023-02-14T01:21:28;103115.41;;;1.80;89.90
6208;BME280;3137;51.550;7.060;2023-02-14T01:23:58;103110.09;;;1.77;89.94
6208;BME280;3137;51.550;7.060;2023-02-14T01:26:25;103102.19;;;1.76;89.96
6208;BME280;3137;51.550;7.060;2023-02-14T01:28:52;103097.78;;;1.70;89.94
6208;BME280;3137;51.550;7.060;2023-02-14T01:31:27;103096.88;;;1.66;89.91
6208;BME280;3137;51.550;7.060;2023-02-14T01:33:56;103097.75;;;1.64;89.89
6208;BME280;3137;51.550;7.060;2023-02-14T01:36:25;103104.78;;;1.66;90.22
6208;BME280;3137;51.550;7.060;2023-02-14T01:38:56;103103.03;;;1.64;90.10
6208;BME280;3137;51.550;7.060;2023-02-14T01:41:26;103110.94;;;1.59;90.18
6208;BME280;3137;51.550;7.060;2023-02-14T01:44:00;103107.38;;;1.54;90.46
6208;BME280;3137;51.550;7.060;2023-02-14T01:46:29;103114.47;;;1.58;90.57
6208;BME280;3137;51.550;7.060;2023-02-14T01:49:12;103103.88;;;1.57;90.93
6208;BME280;3137;51.550;7.060;2023-02-14T01:51:44;103103.00;;;1.56;90.45
6208;BME280;3137;51.550;7.060;2023-02-14T01:54:13;103108.25;;;1.53;90.38
6208;BME280;3137;51.550;7.060;2023-02-14T01:56:44;103101.16;;;1.37;91.11
6208;BME280;3137;51.550;7.060;2023-02-14T01:59:15;103104.66;;;1.33;91.25
6208;BME280;3137;51.550;7.060;2023-02-14T02:01:44;103103.78;;;1.35;91.35
6208;BME280;3137;51.550;7.060;2023-02-14T02:04:14;103102.00;;;1.30;91.63
6208;BME280;3137;51.550;7.060;2023-02-14T02:06:47;103094.94;;;1.27;91.64
6208;BME280;3137;51.550;7.060;2023-02-14T02:09:27;103096.69;;;1.28;91.44
6208;BME280;3137;51.550;7.060;2023-02-14T02:11:56;103089.69;;;1.35;91.33
6208;BME280;3137;51.550;7.060;2023-02-14T02:14:22;103094.09;;;1.36;91.48
6208;BME280;3137;51.550;7.060;2023-02-14T02:17:03;103090.56;;;1.27;91.61
6208;BME280;3137;51.550;7.060;2023-02-14T02:24:54;103085.25;;;1.20;91.56
6208;BME280;3137;51.550;7.060;2023-02-14T02:33:23;103069.31;;;1.08;92.11
6208;BME280;3137;51.550;7.060;2023-02-14T02:41:20;103064.88;;;1.02;91.02
6208;BME280;3137;51.550;7.060;2023-02-14T02:44:16;103058.72;;;0.97;91.50
6208;BME280;3137;51.550;7.060;2023-02-14T02:47:06;103053.47;;;1.01;92.19
6208;BME280;3137;51.550;7.060;2023-02-14T02:49:43;103062.22;;;0.97;91.68
6208;BME280;3137;51.550;7.060;2023-02-14T02:52:47;103057.78;;;0.90;92.14
6208;BME280;3137;51.550;7.060;2023-02-14T02:55:50;103056.94;;;0.94;91.97
6208;BME280;3137;51.550;7.060;2023-02-14T02:58:44;103056.94;;;0.94;92.54
6208;BME280;3137;51.550;7.060;2023-02-14T03:01:16;103056.94;;;0.94;91.58
6208;BME280;3137;51.550;7.060;2023-02-14T03:03:47;103054.25;;;0.90;91.78
6208;BME280;3137;51.550;7.060;2023-02-14T03:06:33;103064.78;;;0.82;91.57
6208;BME280;3137;51.550;7.060;2023-02-14T03:12:28;103049.78;;;0.76;91.62
6208;BME280;3137;51.550;7.060;2023-02-14T03:15:15;103055.00;;;0.67;92.86
6208;BME280;3137;51.550;7.060;2023-02-14T03:17:55;103061.13;;;0.64;91.69
6208;BME280;3137;51.550;7.060;2023-02-14T03:20:59;103059.34;;;0.60;93.07
6208;BME280;3137;51.550;7.060;2023-02-14T03:23:32;103059.34;;;0.62;92.35
6208;BME280;3137;51.550;7.060;2023-02-14T03:26:15;103055.78;;;0.54;93.39
6208;BME280;3137;51.550;7.060;2023-02-14T03:28:49;103054.94;;;0.61;93.17
6208;BME280;3137;51.550;7.060;2023-02-14T03:34:14;103061.94;;;0.56;92.26
6208;BME280;3137;51.550;7.060;2023-02-14T03:37:04;103067.28;;;0.67;92.23
6208;BME280;3137;51.550;7.060;2023-02-14T03:39:42;103068.16;;;0.66;91.96
6208;BME280;3137;51.550;7.060;2023-02-14T03:42:27;103061.19;;;0.74;92.20
6208;BME280;3137;51.550;7.060;2023-02-14T03:44:56;103065.59;;;0.73;91.68
6208;BME280;3137;51.550;7.060;2023-02-14T03:47:27;103069.97;;;0.73;92.16
6208;BME280;3137;51.550;7.060;2023-02-14T03:50:01;103067.38;;;0.74;92.20
6208;BME280;3137;51.550;7.060;2023-02-14T03:52:29;103069.97;;;0.70;92.16
6208;BME280;3137;51.550;7.060;2023-02-14T03:54:59;103069.06;;;0.68;91.63
6208;BME280;3137;51.550;7.060;2023-02-14T03:57:32;103064.66;;;0.68;91.66
6208;BME280;3137;51.550;7.060;2023-02-14T04:00:03;103072.63;;;0.74;92.45
6208;BME280;3137;51.550;7.060;2023-02-14T04:02:43;103072.59;;;0.71;92.53
6208;BME280;3137;51.550;7.060;2023-02-14T04:05:15;103069.94;;;0.65;91.46
6208;BME280;3137;51.550;7.060;2023-02-14T04:07:56;103062.03;;;0.65;91.84
6208;BME280;3137;51.550;7.060;2023-02-14T04:10:23;103062.91;;;0.66;91.99
6208;BME280;3137;51.550;7.060;2023-02-14T04:12:50;103059.38;;;0.67;91.81
6208;BME280;3137;51.550;7.060;2023-02-14T04:15:17;103052.34;;;0.66;91.56
6208;BME280;3137;51.550;7.060;2023-02-14T04:17:43;103052.38;;;0.67;91.47
6208;BME280;3137;51.550;7.060;2023-02-14T04:20:28;103052.31;;;0.64;92.36
6208;BME280;3137;51.550;7.060;2023-02-14T04:22:55;103053.22;;;0.64;91.33
6208;BME280;3137;51.550;7.060;2023-02-14T04:25:22;103060.31;;;0.73;91.29
6208;BME280;3137;51.550;7.060;2023-02-14T04:27:49;103055.88;;;0.69;91.46
6208;BME280;3137;51.550;7.060;2023-02-14T04:30:15;103055.94;;;0.72;92.39
6208;BME280;3137;51.550;7.060;2023-02-14T04:32:43;103052.38;;;0.69;91.95
6208;BME280;3137;51.550;7.060;2023-02-14T04:35:10;103059.28;;;0.51;91.70
6208;BME280;3137;51.550;7.060;2023-02-14T04:37:36;103055.66;;;0.37;92.24
6208;BME280;3137;51.550;7.060;2023-02-14T04:40:03;103055.66;;;0.38;93.00
6208;BME280;3137;51.550;7.060;2023-02-14T04:42:30;103044.25;;;0.42;91.57
6208;BME280;3137;51.550;7.060;2023-02-14T04:44:56;103045.94;;;0.33;92.84
6208;BME280;3137;51.550;7.060;2023-02-14T04:47:23;103047.69;;;0.32;93.75
6208;BME280;3137;51.550;7.060;2023-02-14T04:49:49;103049.50;;;0.38;93.51
6208;BME280;3137;51.550;7.060;2023-02-14T04:52:16;103043.41;;;0.44;93.41
6208;BME280;3137;51.550;7.060;2023-02-14T04:54:42;103039.91;;;0.48;92.01
6208;BME280;3137;51.550;7.060;2023-02-14T04:57:09;103038.16;;;0.48;92.57
6208;BME280;3137;51.550;7.060;2023-02-14T04:59:35;103029.34;;;0.45;92.37
6208;BME280;3137;51.550;7.060;2023-02-14T05:02:01;103027.63;;;0.48;92.92
6208;BME280;3137;51.550;7.060;2023-02-14T05:04:28;103030.25;;;0.47;93.36
6208;BME280;3137;51.550;7.060;2023-02-14T05:06:54;103028.50;;;0.49;93.29
6208;BME280;3137;51.550;7.060;2023-02-14T05:09:20;103024.06;;;0.45;92.13
6208;BME280;3137;51.550;7.060;2023-02-14T05:11:47;103013.50;;;0.40;92.88
6208;BME280;3137;51.550;7.060;2023-02-14T05:14:13;103017.81;;;0.30;92.23
6208;BME280;3137;51.550;7.060;2023-02-14T05:16:39;103016.97;;;0.31;92.06
6208;BME280;3137;51.550;7.060;2023-02-14T05:19:06;103017.81;;;0.30;92.91
6208;BME280;3137;51.550;7.060;2023-02-14T05:21:32;103017.81;;;0.30;91.97
6208;BME280;3137;51.550;7.060;2023-02-14T05:24:00;103016.09;;;0.35;92.35
6208;BME280;3137;51.550;7.060;2023-02-14T05:26:27;103013.50;;;0.38;93.08
6208;BME280;3137;51.550;7.060;2023-02-14T05:28:53;103017.91;;;0.41;93.06
6208;BME280;3137;51.550;7.060;2023-02-14T05:31:20;103008.22;;;0.37;92.05
6208;BME280;3137;51.550;7.060;2023-02-14T05:33:46;103008.19;;;0.35;92.50
6208;BME280;3137;51.550;7.060;2023-02-14T05:36:13;103010.81;;;0.32;92.54
6208;BME280;3137;51.550;7.060;2023-02-14T05:38:39;103004.63;;;0.30;92.46
6208;BME280;3137;51.550;7.060;2023-02-14T05:41:06;103008.13;;;0.28;92.29
6208;BME280;3137;51.550;7.060;2023-02-14T05:43:32;103004.59;;;0.24;91.35
6208;BME280;3137;51.550;7.060;2023-02-14T05:45:59;103007.22;;;0.23;92.89
6208;BME280;3137;51.550;7.060;2023-02-14T05:48:25;103005.44;;;0.20;91.48
6208;BME280;3137;51.550;7.060;2023-02-14T05:50:51;103004.59;;;0.24;92.50
6208;BME280;3137;51.550;7.060;2023-02-14T05:53:18;103005.47;;;0.25;91.50
6208;BME280;3137;51.550;7.060;2023-02-14T05:55:45;102996.69;;;0.24;92.10
6208;BME280;3137;51.550;7.060;2023-02-14T05:58:12;102995.78;;;0.24;92.35
6208;BME280;3137;51.550;7.060;2023-02-14T06:00:39;102999.31;;;0.23;91.64
6208;BME280;3137;51.550;7.060;2023-02-14T06:03:06;103002.81;;;0.23;91.97
6208;BME280;3137;51.550;7.060;2023-02-14T06:05:33;103000.16;;;0.20;92.32
6208;BME280;3137;51.550;7.060;2023-02-14T06:07:59;103006.28;;;0.16;92.24
6208;BME280;3137;51.550;7.060;2023-02-14T06:10:26;103009.72;;;0.09;91.47
6208;BME280;3137;51.550;7.060;2023-02-14T06:12:53;103014.97;;;0.06;92.31
6208;BME280;3137;51.550;7.060;2023-02-14T06:15:20;103025.50;;;0.06;91.53
6208;BME280;3137;51.550;7.060;2023-02-14T06:17:55;103026.38;;;0.03;91.39
6208;BME280;3137;51.550;7.060;2023-02-14T06:20:22;103027.22;;;0.02;92.04
6208;BME280;3137;51.550;7.060;2023-02-14T06:22:50;103036.03;;;0.03;92.13
6208;BME280;3137;51.550;7.060;2023-02-14T06:25:16;103031.63;;;0.00;92.54
6208;BME280;3137;51.550;7.060;2023-02-14T06:27:43;103031.63;;;0.02;92.56
6208;BME280;3137;51.550;7.060;2023-02-14T06:30:10;103035.13;;;0.02;92.41
6208;BME280;3137;51.550;7.060;2023-02-14T06:32:37;103035.97;;;-0.04;92.00
6208;BME280;3137;51.550;7.060;2023-02-14T06:35:04;103039.53;;;0.00;91.31
6208;BME280;3137;51.550;7.060;2023-02-14T06:37:31;103040.41;;;0.04;91.53
6208;BME280;3137;51.550;7.060;2023-02-14T06:39:57;103033.41;;;0.03;92.07
6208;BME280;3137;51.550;7.060;2023-02-14T06:42:24;103050.94;;;0.02;91.58
6208;BME280;3137;51.550;7.060;2023-02-14T06:44:50;103050.06;;;0.00;92.13
6208;BME280;3137;51.550;7.060;2023-02-14T06:47:17;103048.28;;;-0.01;92.65
6208;BME280;3137;51.550;7.060;2023-02-14T06:49:43;103050.91;;;-0.01;92.80
6208;BME280;3137;51.550;7.060;2023-02-14T06:52:10;103055.34;;;0.03;92.53
6208;BME280;3137;51.550;7.060;2023-02-14T06:54:36;103057.06;;;-0.01;91.80
6208;BME280;3137;51.550;7.060;2023-02-14T06:57:02;103054.38;;;-0.05;91.92
6208;BME280;3137;51.550;7.060;2023-02-14T06:59:29;103051.75;;;-0.07;91.87
6208;BME280;3137;51.550;7.060;2023-02-14T07:01:55;103056.94;;;-0.10;92.66
6208;BME280;3137;51.550;7.060;2023-02-14T07:04:22;103055.22;;;-0.08;92.28
6208;BME280;3137;51.550;7.060;2023-02-14T07:06:48;103062.28;;;-0.07;92.23
6208;BME280;3137;51.550;7.060;2023-02-14T07:09:14;103063.94;;;-0.15;92.16
6208;BME280;3137;51.550;7.060;2023-02-14T07:11:45;103056.06;;;-0.13;92.21
6208;BME280;3137;51.550;7.060;2023-02-14T07:14:12;103059.59;;;-0.11;91.65
6208;BME280;3137;51.550;7.060;2023-02-14T07:16:39;103057.94;;;-0.02;92.63
6208;BME280;3137;51.550;7.060;2023-02-14T07:19:05;103057.09;;;0.03;92.55
6208;BME280;3137;51.550;7.060;2023-02-14T07:21:32;103058.84;;;0.04;91.77
6208;BME280;3137;51.550;7.060;2023-02-14T07:23:58;103059.75;;;0.07;91.54
6208;BME280;3137;51.550;7.060;2023-02-14T07:26:24;103058.03;;;0.08;91.60
6208;BME280;3137;51.550;7.060;2023-02-14T07:28:51;103056.25;;;0.05;92.26
6208;BME280;3137;51.550;7.060;2023-02-14T07:31:17;103058.03;;;0.11;92.64
6208;BME280;3137;51.550;7.060;2023-02-14T07:33:45;103061.59;;;0.16;92.34
6208;BME280;3137;51.550;7.060;2023-02-14T07:36:11;103056.41;;;0.24;93.66
6208;BME280;3137;51.550;7.060;2023-02-14T07:38:37;103052.09;;;0.32;93.14
6208;BME280;3137;51.550;7.060;2023-02-14T07:41:04;103049.50;;;0.39;93.48
6208;BME280;3137;51.550;7.060;2023-02-14T07:43:30;103053.09;;;0.49;92.34
6208;BME280;3137;51.550;7.060;2023-02-14T07:46:00;103052.25;;;0.55;92.67
6208;BME280;3137;51.550;7.060;2023-02-14T07:48:27;103047.88;;;0.57;92.97
6208;BME280;3137;51.550;7.060;2023-02-14T07:50:57;103043.53;;;0.62;92.85
6208;BME280;3137;51.550;7.060;2023-02-14T07:53:24;103048.00;;;0.71;93.36
6208;BME280;3137;51.550;7.060;2023-02-14T07:55:51;103045.44;;;0.83;92.75
6208;BME280;3137;51.550;7.060;2023-02-14T07:58:18;103047.25;;;0.93;93.26
6208;BME280;3137;51.550;7.060;2023-02-14T08:00:45;103049.09;;;1.08;92.74
6208;BME280;3137;51.550;7.060;2023-02-14T08:03:14;103049.16;;;1.20;92.55
6208;BME280;3137;51.550;7.060;2023-02-14T08:05:41;103043.06;;;1.32;92.98
6208;BME280;3137;51.550;7.060;2023-02-14T08:08:07;103043.09;;;1.46;93.17
6208;BME280;3137;51.550;7.060;2023-02-14T08:10:34;103041.41;;;1.59;93.58
6208;BME280;3137;51.550;7.060;2023-02-14T08:13:00;103043.16;;;1.72;93.36
6208;BME280;3137;51.550;7.060;2023-02-14T08:15:29;103043.19;;;1.84;93.31
6208;BME280;3137;51.550;7.060;2023-02-14T08:18:15;103043.25;;;2.04;93.34
6208;BME280;3137;51.550;7.060;2023-02-14T08:20:44;103045.91;;;2.17;93.41
6208;BME280;3137;51.550;7.060;2023-02-14T08:23:11;103045.91;;;2.21;93.34
6208;BME280;3137;51.550;7.060;2023-02-14T08:25:37;103038.84;;;2.26;93.67
6208;BME280;3137;51.550;7.060;2023-02-14T08:28:05;103037.09;;;2.34;93.24
6208;BME280;3137;51.550;7.060;2023-02-14T08:30:32;103037.97;;;2.49;93.32
6208;BME280;3137;51.550;7.060;2023-02-14T08:33:00;103039.72;;;2.64;93.99
6208;BME280;3137;51.550;7.060;2023-02-14T08:35:27;103033.53;;;2.83;93.59
6208;BME280;3137;51.550;7.060;2023-02-14T08:37:53;103042.25;;;3.08;93.88
6208;BME280;3137;51.550;7.060;2023-02-14T08:40:19;103039.53;;;3.30;94.42
6208;BME280;3137;51.550;7.060;2023-02-14T08:42:46;103035.94;;;3.52;94.48
6208;BME280;3137;51.550;7.060;2023-02-14T08:45:12;103041.09;;;3.74;94.49
6208;BME280;3137;51.550;7.060;2023-02-14T08:47:39;103040.09;;;3.93;94.47
6208;BME280;3137;51.550;7.060;2023-02-14T08:50:08;103043.44;;;4.18;94.24
6208;BME280;3137;51.550;7.060;2023-02-14T08:52:35;103037.91;;;4.43;94.52
6208;BME280;3137;51.550;7.060;2023-02-14T08:55:01;103043.94;;;4.65;94.10
6208;BME280;3137;51.550;7.060;2023-02-14T08:57:28;103042.00;;;4.82;93.79
6208;BME280;3137;51.550;7.060;2023-02-14T08:59:54;103042.72;;;4.97;93.27
6208;BME280;3137;51.550;7.060;2023-02-14T09:02:20;103044.25;;;5.18;92.82
6208;BME280;3137;51.550;7.060;2023-02-14T09:04:47;103034.25;;;5.40;92.56
6208;BME280;3137;51.550;7.060;2023-02-14T09:07:13;103039.34;;;5.57;91.64
6208;BME280;3137;51.550;7.060;2023-02-14T09:09:40;103035.56;;;5.73;91.50
6208;BME280;3137;51.550;7.060;2023-02-14T09:12:08;103033.50;;;5.96;90.55
6208;BME280;3137;51.550;7.060;2023-02-14T09:14:36;103029.53;;;6.22;89.74
6208;BME280;3137;51.550;7.060;2023-02-14T09:17:03;103026.50;;;6.45;88.83
6208;BME280;3137;51.550;7.060;2023-02-14T09:19:35;103029.56;;;6.70;88.03
6208;BME280;3137;51.550;7.060;2023-02-14T09:22:03;103019.53;;;6.86;86.14
6208;BME280;3137;51.550;7.060;2023-02-14T09:24:31;103017.31;;;7.08;83.46
6208;BME280;3137;51.550;7.060;2023-02-14T09:26:58;103011.59;;;7.28;83.04
6208;BME280;3137;51.550;7.060;2023-02-14T09:29:26;103013.13;;;7.40;82.25
6208;BME280;3137;51.550;7.060;2023-02-14T09:31:57;103010.84;;;7.62;81.64
6208;BME280;3137;51.550;7.060;2023-02-14T09:34:26;103011.41;;;7.76;81.51
6208;BME280;3137;51.550;7.060;2023-02-14T09:37:12;103013.78;;;7.88;79.49
6208;BME280;3137;51.550;7.060;2023-02-14T09:39:57;103005.41;;;8.04;76.81
6208;BME280;3137;51.550;7.060;2023-02-14T09:42:41;103006.00;;;8.17;75.28
6208;BME280;3137;51.550;7.060;2023-02-14T09:45:13;103003.69;;;8.37;73.26
6208;BME280;3137;51.550;7.060;2023-02-14T09:47:42;102998.16;;;8.46;70.46
6208;BME280;3137;51.550;7.060;2023-02-14T09:50:16;102999.59;;;8.60;68.35
6208;BME280;3137;51.550;7.060;2023-02-14T09:52:46;103000.00;;;8.77;68.67
6208;BME280;3137;51.550;7.060;2023-02-14T09:55:15;103002.34;;;8.88;68.05
6208;BME280;3137;51.550;7.060;2023-02-14T09:57:54;103005.66;;;8.98;67.16
6208;BME280;3137;51.550;7.060;2023-02-14T10:05:38;102997.88;;;9.51;65.92
6208;BME280;3137;51.550;7.060;2023-02-14T10:08:19;102998.25;;;9.67;66.08
6208;BME280;3137;51.550;7.060;2023-02-14T10:11:00;103002.69;;;9.68;64.44
6208;BME280;3137;51.550;7.060;2023-02-14T10:13:43;102994.06;;;9.86;64.43
6208;BME280;3137;51.550;7.060;2023-02-14T10:16:23;102997.41;;;9.93;63.54
6208;BME280;3137;51.550;7.060;2023-02-14T10:21:25;102994.03;;;10.14;61.89
6208;BME280;3137;51.550;7.060;2023-02-14T10:23:59;102984.72;;;10.26;62.85
6208;BME280;3137;51.550;7.060;2023-02-14T10:26:34;102984.28;;;10.40;61.74
6208;BME280;3137;51.550;7.060;2023-02-14T10:29:01;102989.31;;;10.49;61.39
6208;BME280;3137;51.550;7.060;2023-02-14T10:31:51;102986.56;;;10.51;59.73
6208;BME280;3137;51.550;7.060;2023-02-14T10:37:38;102981.97;;;10.79;60.22
6208;BME280;3137;51.550;7.060;2023-02-14T10:50:45;102974.63;;;11.55;57.53
6208;BME280;3137;51.550;7.060;2023-02-14T10:56:11;102980.78;;;11.81;56.93
6208;BME280;3137;51.550;7.060;2023-02-14T10:58:44;102972.38;;;11.90;56.63
6208;BME280;3137;51.550;7.060;2023-02-14T11:01:13;102968.44;;;11.99;56.22
6208;BME280;3137;51.550;7.060;2023-02-14T11:03:50;102958.59;;;12.20;57.35
6208;BME280;3137;51.550;7.060;2023-02-14T11:06:17;102957.06;;;12.34;56.31
6208;BME280;3137;51.550;7.060;2023-02-14T11:08:44;102953.78;;;12.48;55.70
6208;BME280;3137;51.550;7.060;2023-02-14T11:13:49;102951.75;;;12.53;53.75
6208;BME280;3137;51.550;7.060;2023-02-14T11:16:33;102945.34;;;12.76;54.05
6208;BME280;3137;51.550;7.060;2023-02-14T11:19:28;102944.59;;;12.73;54.25
6208;BME280;3137;51.550;7.060;2023-02-14T11:21:57;102934.88;;;12.70;52.95
6208;BME280;3137;51.550;7.060;2023-02-14T11:24:33;102935.47;;;12.77;52.37
6208;BME280;3137;51.550;7.060;2023-02-14T11:27:13;102941.91;;;12.93;52.31
6208;BME280;3137;51.550;7.060;2023-02-14T11:29:48;102935.56;;;13.13;52.83
6208;BME280;3137;51.550;7.060;2023-02-14T11:32:21;102934.06;;;13.27;52.03
6208;BME280;3137;51.550;7.060;2023-02-14T11:35:02;102927.31;;;13.37;51.19
6208;BME280;3137;51.550;7.060;2023-02-14T11:37:32;102916.72;;;13.34;51.53
6208;BME280;3137;51.550;7.060;2023-02-14T11:40:03;102918.16;;;13.41;49.92
6208;BME280;3137;51.550;7.060;2023-02-14T11:42:42;102912.31;;;13.50;50.12
6208;BME280;3137;51.550;7.060;2023-02-14T11:45:27;102910.72;;;13.46;50.96
6208;BME280;3137;51.550;7.060;2023-02-14T11:48:26;102904.81;;;13.38;51.79
6208;BME280;3137;51.550;7.060;2023-02-14T11:51:12;102900.25;;;13.40;52.71
6208;BME280;3137;51.550;7.060;2023-02-14T11:53:46;102892.97;;;13.42;50.26
6208;BME280;3137;51.550;7.060;2023-02-14T11:56:15;102890.13;;;13.45;50.02
6208;BME280;3137;51.550;7.060;2023-02-14T11:58:53;102883.03;;;13.61;50.39
6208;BME280;3137;51.550;7.060;2023-02-14T12:01:24;102873.69;;;13.69;49.38
6208;BME280;3137;51.550;7.060;2023-02-14T12:03:53;102866.88;;;13.79;49.40
6208;BME280;3137;51.550;7.060;2023-02-14T12:06:25;102875.78;;;13.98;49.02
6208;BME280;3137;51.550;7.060;2023-02-14T12:14:23;102863.63;;;14.42;46.84
6208;BME280;3137;51.550;7.060;2023-02-14T12:17:22;102866.94;;;14.47;49.17
6208;BME280;3137;51.550;7.060;2023-02-14T12:20:11;102857.38;;;14.24;47.89
6208;BME280;3137;51.550;7.060;2023-02-14T12:22:54;102850.81;;;14.30;48.86
6208;BME280;3137;51.550;7.060;2023-02-14T12:25:24;102837.16;;;14.33;49.16
6208;BME280;3137;51.550;7.060;2023-02-14T12:27:58;102843.34;;;14.17;48.86
6208;BME280;3137;51.550;7.060;2023-02-14T12:30:29;102847.44;;;14.24;49.19
6208;BME280;3137;51.550;7.060;2023-02-14T12:32:56;102846.41;;;14.44;48.34
6208;BME280;3137;51.550;7.060;2023-02-14T12:35:42;102841.94;;;14.61;49.65
6208;BME280;3137;51.550;7.060;2023-02-14T12:38:27;102833.75;;;14.62;48.24
6208;BME280;3137;51.550;7.060;2023-02-14T12:41:02;102833.16;;;14.57;48.79
6208;BME280;3137;51.550;7.060;2023-02-14T12:43:47;102828.84;;;14.20;47.91
6208;BME280;3137;51.550;7.060;2023-02-14T12:49:07;102833.97;;;13.91;47.24
6208;BME280;3137;51.550;7.060;2023-02-14T12:51:52;102834.88;;;14.08;47.98
6208;BME280;3137;51.550;7.060;2023-02-14T12:57:34;102817.00;;;14.40;47.66
6208;BME280;3137;51.550;7.060;2023-02-14T13:03:02;102806.81;;;14.78;47.08
6208;BME280;3137;51.550;7.060;2023-02-14T13:05:53;102812.13;;;14.96;46.13
6208;BME280;3137;51.550;7.060;2023-02-14T13:11:32;102799.34;;;14.99;46.13
6208;BME280;3137;51.550;7.060;2023-02-14T13:22:03;102792.09;;;15.00;46.50
6208;BME280;3137;51.550;7.060;2023-02-14T13:24:38;102789.03;;;15.06;46.10
6208;BME280;3137;51.550;7.060;2023-02-14T13:27:10;102789.22;;;15.03;43.23
6208;BME280;3137;51.550;7.060;2023-02-14T13:30:02;102782.63;;;15.08;45.85
6208;BME280;3137;51.550;7.060;2023-02-14T13:32:35;102782.97;;;15.18;45.48
6208;BME280;3137;51.550;7.060;2023-02-14T13:35:04;102773.88;;;15.19;45.14
6208;BME280;3137;51.550;7.060;2023-02-14T13:37:32;102772.97;;;15.35;44.22
6208;BME280;3137;51.550;7.060;2023-02-14T13:40:06;102771.75;;;14.94;43.94
6208;BME280;3137;51.550;7.060;2023-02-14T13:48:10;102763.75;;;14.61;46.97
6208;BME280;3137;51.550;7.060;2023-02-14T13:50:40;102762.78;;;14.62;47.01
6208;BME280;3137;51.550;7.060;2023-02-14T13:53:43;102760.00;;;14.63;46.46
6208;BME280;3137;51.550;7.060;2023-02-14T13:58:58;102743.72;;;14.65;46.16
6208;BME280;3137;51.550;7.060;2023-02-14T14:04:02;102745.69;;;14.30;45.73
6208;BME280;3137;51.550;7.060;2023-02-14T14:17:31;102730.56;;;14.10;48.25
6208;BME280;3137;51.550;7.060;2023-02-14T14:19:59;102732.03;;;13.99;47.71
6208;BME280;3137;51.550;7.060;2023-02-14T14:22:27;102730.31;;;13.98;48.19
6208;BME280;3137;51.550;7.060;2023-02-14T14:24:56;102721.56;;;13.93;46.50
6208;BME280;3137;51.550;7.060;2023-02-14T14:27:39;102724.44;;;13.90;46.96
6208;BME280;3137;51.550;7.060;2023-02-14T14:30:18;102726.22;;;13.91;47.39
6208;BME280;3137;51.550;7.060;2023-02-14T14:32:46;102722.41;;;13.78;48.42
6208;BME280;3137;51.550;7.060;2023-02-14T14:35:20;102713.28;;;13.80;47.87
6208;BME280;3137;51.550;7.060;2023-02-14T14:37:54;102711.63;;;13.78;48.53
6208;BME280;3137;51.550;7.060;2023-02-14T14:40:32;102706.88;;;13.83;47.52
6208;BME280;3137;51.550;7.060;2023-02-14T14:43:05;102713.28;;;13.80;46.46
6208;BME280;3137;51.550;7.060;2023-02-14T14:45:32;102705.47;;;13.76;46.89
6208;BME280;3137;51.550;7.060;2023-02-14T14:48:07;102707.22;;;13.77;48.01
6208;BME280;3137;51.550;7.060;2023-02-14T14:50:34;102703.88;;;13.72;48.41
6208;BME280;3137;51.550;7.060;2023-02-14T14:53:04;102702.38;;;13.66;47.69
6208;BME280;3137;51.550;7.060;2023-02-14T14:55:34;102699.00;;;13.63;46.53
6208;BME280;3137;51.550;7.060;2023-02-14T14:58:03;102701.69;;;13.63;46.91
6208;BME280;3137;51.550;7.060;2023-02-14T15:00:35;102701.78;;;13.61;46.40
6208;BME280;3137;51.550;7.060;2023-02-14T15:05:45;102690.75;;;13.66;46.84
6208;BME280;3137;51.550;7.060;2023-02-14T15:08:20;102692.91;;;13.59;47.08
6208;BME280;3137;51.550;7.060;2023-02-14T15:13:33;102677.78;;;13.56;48.86
6208;BME280;3137;51.550;7.060;2023-02-14T15:16:25;102684.88;;;13.57;47.36
6208;BME280;3137;51.550;7.060;2023-02-14T15:18:59;102683.34;;;13.53;47.64
6208;BME280;3137;51.550;7.060;2023-02-14T15:21:32;102673.19;;;13.58;48.30